M22 weather

Bill Pugh Field
Russellville, Alabama, United States

Public forecast

Using degrees Fahrenheit for public forecast. Weather courtesy of forecast.io.

METAR (pilot weather report)

Closest report is Posey Field, 11.3 nm (21.0 km) SSE. Retrieved 2019/08/24 07:56 UTC (1 hour ago):

K1M4 240756Z AUTO 20003KT 10SM CLR 21/20 A3006 RMK AO2 SLP551 T02060200

TAF (pilot weather forecast)

Closest forecast is Northwest Alabama Regional Airport, 18.7 nm (34.6 km) NNE. Retrieved 2019/08/24 06:33 UTC (2 hours ago):

TAF KMSL 240530Z 2406/2506 VRB03KT 5SM BR BKN250 FM240800 VRB02KT 2SM BR BKN012 FM241300 07003KT P6SM BKN030 FM241900 05004KT P6SM OVC050 TEMPO 2420/2424 -TSRA BKN025CB FM250000 35003KT P6SM OVC200